createdAt,value
2023-05-05T00:01:44.738Z,4.28
2023-05-05T00:04:11.116Z,3.95
2023-05-05T00:06:37.498Z,3.80
2023-05-05T00:09:03.839Z,4.50
2023-05-05T00:11:31.258Z,4.03
2023-05-05T00:13:57.589Z,4.00
2023-05-05T00:16:24.050Z,3.78
2023-05-05T00:18:50.411Z,3.63
2023-05-05T00:21:16.760Z,3.78
2023-05-05T00:23:43.102Z,3.90
2023-05-05T00:26:09.461Z,3.58
2023-05-05T00:28:35.783Z,4.00
2023-05-05T00:31:02.283Z,3.90
2023-05-05T00:33:28.766Z,3.58
2023-05-05T00:35:55.110Z,3.83
2023-05-05T00:38:21.441Z,3.53
2023-05-05T00:40:47.779Z,3.55
2023-05-05T00:43:14.103Z,4.07
2023-05-05T00:45:40.565Z,3.33
2023-05-05T00:48:06.951Z,3.53
2023-05-05T00:50:33.343Z,3.10
2023-05-05T00:53:03.995Z,2.92
2023-05-05T00:55:30.779Z,2.70
2023-05-05T00:57:58.403Z,2.58
2023-05-05T01:00:25.212Z,2.97
2023-05-05T01:02:52.772Z,2.45
2023-05-05T01:05:23.840Z,2.60
2023-05-05T01:08:06.835Z,2.58
2023-05-05T01:10:53.656Z,2.90
2023-05-05T01:13:41.952Z,2.63
2023-05-05T01:16:21.206Z,2.70
2023-05-05T01:19:18.603Z,3.03
2023-05-05T01:21:50.142Z,2.90
2023-05-05T01:24:38.732Z,2.58
2023-05-05T01:27:27.910Z,2.57
2023-05-05T01:30:05.440Z,2.60
2023-05-05T01:32:34.437Z,2.60
2023-05-05T01:35:22.955Z,2.50
2023-05-05T01:37:53.319Z,2.70
2023-05-05T01:40:22.630Z,2.73
2023-05-05T01:42:48.994Z,2.70
2023-05-05T01:45:16.148Z,2.90
2023-05-05T01:47:42.644Z,2.50
2023-05-05T01:50:10.354Z,2.67
2023-05-05T01:52:38.224Z,2.50
2023-05-05T01:55:04.919Z,2.60
2023-05-05T01:57:31.808Z,2.47
2023-05-05T01:59:58.946Z,2.42
2023-05-05T02:02:27.861Z,2.40
2023-05-05T02:04:55.165Z,2.70
2023-05-05T02:07:21.796Z,2.40
2023-05-05T02:09:48.226Z,2.25
2023-05-05T02:12:15.336Z,2.60
2023-05-05T02:14:42.906Z,2.15
2023-05-05T02:17:09.375Z,2.50
2023-05-05T02:19:40.186Z,2.25
2023-05-05T02:22:06.655Z,2.30
2023-05-05T02:24:33.278Z,2.10
2023-05-05T02:27:02.758Z,2.40
2023-05-05T02:29:34.116Z,2.37
2023-05-05T02:32:08.131Z,2.28
2023-05-05T02:34:36.871Z,2.13
2023-05-05T02:37:05.519Z,2.53
2023-05-05T02:39:33.249Z,2.50
2023-05-05T02:42:01.570Z,2.20
2023-05-05T02:44:29.231Z,2.10
2023-05-05T02:46:56.467Z,2.80
2023-05-05T02:49:22.806Z,2.33
2023-05-05T02:51:49.239Z,2.50
2023-05-05T02:54:15.626Z,2.30
2023-05-05T02:56:49.688Z,2.53
2023-05-05T02:59:22.985Z,2.60
2023-05-05T03:02:03.529Z,2.30
2023-05-05T03:04:35.534Z,2.60
2023-05-05T03:07:07.833Z,2.70
2023-05-05T03:09:39.972Z,2.40
2023-05-05T03:12:08.942Z,2.65
2023-05-05T03:14:39.141Z,2.75
2023-05-05T03:17:06.174Z,2.70
2023-05-05T03:19:33.925Z,2.90
2023-05-05T03:22:00.581Z,2.75
2023-05-05T03:24:26.912Z,2.72
2023-05-05T03:26:53.242Z,2.90
2023-05-05T03:29:19.561Z,2.78
2023-05-05T03:31:45.960Z,2.57
2023-05-05T03:34:12.371Z,2.83
2023-05-05T03:36:38.893Z,3.10
2023-05-05T03:39:05.206Z,2.70
2023-05-05T03:41:31.592Z,2.88
2023-05-05T03:43:57.918Z,3.17
2023-05-05T03:46:24.295Z,2.90
2023-05-05T03:48:50.606Z,2.90
2023-05-05T03:51:17.061Z,3.88
2023-05-05T03:53:43.434Z,4.68
2023-05-05T03:56:09.794Z,4.37
2023-05-05T03:58:36.107Z,3.97
2023-05-05T04:01:03.541Z,4.50
2023-05-05T04:03:29.974Z,4.72
2023-05-05T04:05:56.372Z,4.20
2023-05-05T04:08:22.736Z,3.80
2023-05-05T04:10:49.066Z,3.53
2023-05-05T04:13:15.483Z,3.90
2023-05-05T04:15:48.094Z,3.80
2023-05-05T04:18:15.474Z,3.83
2023-05-05T04:20:41.848Z,3.73
2023-05-05T04:23:08.194Z,3.60
2023-05-05T04:25:34.579Z,3.45
2023-05-05T04:28:00.951Z,3.80
2023-05-05T04:30:27.341Z,4.95
2023-05-05T04:32:53.816Z,4.60
2023-05-05T04:35:20.222Z,4.10
2023-05-05T04:37:46.536Z,4.35
2023-05-05T04:40:12.976Z,4.00
2023-05-05T04:42:39.359Z,4.32
2023-05-05T04:45:06.114Z,3.60
2023-05-05T04:47:37.261Z,3.92
2023-05-05T04:50:03.699Z,3.05
2023-05-05T04:52:30.040Z,2.90
2023-05-05T04:54:56.355Z,3.05
2023-05-05T04:57:23.702Z,3.53
2023-05-05T04:59:50.036Z,3.25
2023-05-05T05:02:16.381Z,3.30
2023-05-05T05:04:42.730Z,3.20
2023-05-05T05:07:09.092Z,3.25
2023-05-05T05:09:35.430Z,3.03
2023-05-05T05:12:01.786Z,3.30
2023-05-05T05:14:28.171Z,2.85
2023-05-05T05:16:54.658Z,2.95
2023-05-05T05:19:21.044Z,3.00
2023-05-05T05:21:47.419Z,2.93
2023-05-05T05:24:13.780Z,2.92
2023-05-05T05:26:40.123Z,2.92
2023-05-05T05:29:06.600Z,2.90
2023-05-05T05:31:33.058Z,2.63
2023-05-05T05:33:59.404Z,3.00
2023-05-05T05:36:25.738Z,2.90
2023-05-05T05:38:52.083Z,2.78
2023-05-05T05:41:18.405Z,2.70
2023-05-05T05:43:44.764Z,2.83
2023-05-05T05:46:11.112Z,2.60
2023-05-05T05:48:37.448Z,2.30
2023-05-05T05:51:03.880Z,2.38
2023-05-05T05:53:30.194Z,2.35
2023-05-05T05:55:56.538Z,2.50
2023-05-05T05:58:22.861Z,2.10
2023-05-05T06:00:49.219Z,2.40
2023-05-05T06:03:15.767Z,2.70
2023-05-05T06:05:42.275Z,2.28
2023-05-05T06:08:08.602Z,2.40
2023-05-05T06:10:35.303Z,2.20
2023-05-05T06:13:01.886Z,2.55
2023-05-05T06:15:28.237Z,2.10
2023-05-05T06:17:54.635Z,2.17
2023-05-05T06:20:21.059Z,2.25
2023-05-05T06:22:47.402Z,2.37
2023-05-05T06:25:13.772Z,2.42
2023-05-05T06:27:41.203Z,2.42
2023-05-05T06:30:08.175Z,2.78
2023-05-05T06:32:34.811Z,2.60
2023-05-05T06:35:01.764Z,2.43
2023-05-05T06:37:28.090Z,2.20
2023-05-05T06:39:54.445Z,2.78
2023-05-05T06:42:20.775Z,2.50
2023-05-05T06:44:47.116Z,2.40
2023-05-05T06:47:13.451Z,2.20
2023-05-05T06:49:39.801Z,2.30
2023-05-05T06:52:06.152Z,2.33
2023-05-05T06:54:32.564Z,2.50
2023-05-05T06:56:59.698Z,2.30
2023-05-05T06:59:26.459Z,3.10
2023-05-05T07:01:52.782Z,2.90
2023-05-05T07:04:19.170Z,2.80
2023-05-05T07:06:45.550Z,2.72
2023-05-05T07:09:11.901Z,2.47
2023-05-05T07:11:38.518Z,2.67
2023-05-05T07:14:04.863Z,2.55
2023-05-05T07:16:31.232Z,2.95
2023-05-05T07:18:57.599Z,2.42
2023-05-05T07:21:23.915Z,2.47
2023-05-05T07:23:50.265Z,2.80
2023-05-05T07:26:16.632Z,2.30
2023-05-05T07:28:43.055Z,2.50
2023-05-05T07:31:09.519Z,2.20
2023-05-05T07:33:35.850Z,2.50
2023-05-05T07:36:02.172Z,2.17
2023-05-05T07:38:28.499Z,2.50
2023-05-05T07:40:54.877Z,2.30
2023-05-05T07:43:21.247Z,2.00
2023-05-05T07:45:47.638Z,2.00
2023-05-05T07:48:14.031Z,2.07
2023-05-05T07:50:40.350Z,1.90
2023-05-05T07:53:14.404Z,1.98
2023-05-05T07:55:41.682Z,2.00
2023-05-05T07:58:08.028Z,2.17
2023-05-05T08:00:34.338Z,2.23
2023-05-05T08:03:00.763Z,1.98
2023-05-05T08:05:27.134Z,2.13
2023-05-05T08:07:53.478Z,2.17
2023-05-05T08:10:20.353Z,2.20
2023-05-05T08:12:46.692Z,2.10
2023-05-05T08:15:13.076Z,1.98
2023-05-05T08:17:50.518Z,2.22
2023-05-05T08:20:17.850Z,2.10
2023-05-05T08:22:44.926Z,2.13
2023-05-05T08:25:11.504Z,2.20
2023-05-05T08:27:39.272Z,2.20
2023-05-05T08:30:06.212Z,2.10
2023-05-05T08:32:32.604Z,2.13
2023-05-05T08:35:01.201Z,2.30
2023-05-05T08:37:27.544Z,2.30
2023-05-05T08:39:53.897Z,2.20
2023-05-05T08:42:35.534Z,2.10
2023-05-05T08:45:04.269Z,1.90
2023-05-05T08:47:30.693Z,1.85
2023-05-05T08:49:59.265Z,2.00
2023-05-05T08:52:29.146Z,2.80
2023-05-05T08:55:02.539Z,2.22
2023-05-05T08:57:32.940Z,2.10
2023-05-05T08:59:59.909Z,2.03
2023-05-05T09:02:27.042Z,2.07
2023-05-05T09:04:53.486Z,2.00
2023-05-05T09:07:19.818Z,1.90
2023-05-05T09:09:47.206Z,1.90
2023-05-05T09:12:13.602Z,2.03
2023-05-05T09:14:39.956Z,2.13
2023-05-05T09:17:06.418Z,2.00
2023-05-05T09:19:32.800Z,2.05
2023-05-05T09:21:59.114Z,2.20
2023-05-05T09:24:25.445Z,1.90
2023-05-05T09:26:55.093Z,2.20
2023-05-05T09:29:22.619Z,2.05
2023-05-05T09:32:03.774Z,1.90
2023-05-05T09:34:30.209Z,1.92
2023-05-05T09:36:56.525Z,2.38
2023-05-05T09:39:22.840Z,1.83
2023-05-05T09:41:49.179Z,2.28
2023-05-05T09:44:15.503Z,2.13
2023-05-05T09:46:52.323Z,2.22
2023-05-05T09:49:20.831Z,1.92
2023-05-05T09:51:47.548Z,2.03
2023-05-05T09:54:27.721Z,2.10
2023-05-05T09:56:57.500Z,2.30
2023-05-05T09:59:24.323Z,2.00
2023-05-05T10:01:51.264Z,1.98
2023-05-05T10:04:28.679Z,2.20
2023-05-05T10:06:56.375Z,2.20
2023-05-05T10:09:23.812Z,2.05
2023-05-05T10:11:50.569Z,2.17
2023-05-05T10:14:17.696Z,2.17
2023-05-05T10:16:48.802Z,2.20
2023-05-05T10:19:16.049Z,1.85
2023-05-05T10:21:47.155Z,2.28
2023-05-05T10:24:22.446Z,2.22
2023-05-05T10:26:49.447Z,2.10
2023-05-05T10:29:36.758Z,2.30
2023-05-05T10:32:21.387Z,2.05
2023-05-05T10:35:00.108Z,2.08
2023-05-05T10:37:27.550Z,2.08
2023-05-05T10:39:54.975Z,2.10
2023-05-05T10:42:22.629Z,2.10
2023-05-05T10:44:48.974Z,2.00
2023-05-05T10:47:16.901Z,2.42
2023-05-05T10:49:53.126Z,2.40
2023-05-05T10:52:46.990Z,2.22
2023-05-05T10:55:18.537Z,2.40
2023-05-05T10:57:46.148Z,2.00
2023-05-05T11:00:40.285Z,2.40
2023-05-05T11:03:15.856Z,2.28
2023-05-05T11:06:05.176Z,1.95
2023-05-05T11:08:32.443Z,2.43
2023-05-05T11:10:59.387Z,2.10
2023-05-05T11:13:25.739Z,2.20
2023-05-05T11:15:53.695Z,1.92
2023-05-05T11:18:33.885Z,2.03
2023-05-05T11:21:00.170Z,2.07
2023-05-05T11:23:26.669Z,2.10
2023-05-05T11:25:53.745Z,1.98
2023-05-05T11:28:27.339Z,2.38
2023-05-05T11:30:57.249Z,2.03
2023-05-05T11:33:28.229Z,2.07
2023-05-05T11:35:54.789Z,2.25
2023-05-05T11:38:26.289Z,1.98
2023-05-05T11:41:01.786Z,2.20
2023-05-05T11:43:28.146Z,2.20
2023-05-05T11:46:10.369Z,2.07
2023-05-05T11:48:46.286Z,2.17
2023-05-05T11:51:13.227Z,2.53
2023-05-05T11:53:47.569Z,2.20
2023-05-05T11:56:15.257Z,2.10
2023-05-05T11:58:41.588Z,2.30
2023-05-05T12:01:08.403Z,2.20
2023-05-05T12:03:36.214Z,2.00
2023-05-05T12:06:03.637Z,2.38
2023-05-05T12:08:36.708Z,2.08
2023-05-05T12:11:10.504Z,2.10
2023-05-05T12:13:36.966Z,2.03
2023-05-05T12:16:13.647Z,2.22
2023-05-05T12:18:40.658Z,2.03
2023-05-05T12:21:17.376Z,1.90
2023-05-05T12:23:43.900Z,2.17
2023-05-05T12:26:26.882Z,2.20
2023-05-05T12:28:53.480Z,2.40
2023-05-05T12:31:19.890Z,2.20
2023-05-05T12:33:46.328Z,2.47
2023-05-05T12:36:13.356Z,2.27
2023-05-05T12:38:39.688Z,2.00
2023-05-05T12:41:06.068Z,2.00
2023-05-05T12:43:34.109Z,2.08
2023-05-05T12:46:03.453Z,2.10
2023-05-05T12:48:29.869Z,1.80
2023-05-05T12:51:19.534Z,2.20
2023-05-05T12:54:09.573Z,2.35
2023-05-05T12:56:40.749Z,2.20
2023-05-05T12:59:10.785Z,2.38
2023-05-05T13:01:48.500Z,2.20
2023-05-05T13:04:14.984Z,2.38
2023-05-05T13:06:42.855Z,2.08
2023-05-05T13:09:09.565Z,2.17
2023-05-05T13:11:37.376Z,2.20
2023-05-05T13:14:04.424Z,2.30
2023-05-05T13:16:30.851Z,2.40
2023-05-05T13:18:57.166Z,1.90
2023-05-05T13:21:23.814Z,2.13
2023-05-05T13:23:51.347Z,2.20
2023-05-05T13:26:17.684Z,2.50
2023-05-05T13:28:44.005Z,2.50
2023-05-05T13:31:10.365Z,2.88
2023-05-05T13:33:36.786Z,2.50
2023-05-05T13:36:03.276Z,2.30
2023-05-05T13:38:29.873Z,2.30
2023-05-05T13:40:56.289Z,2.33
2023-05-05T13:43:22.607Z,2.70
2023-05-05T13:45:48.995Z,2.20
2023-05-05T13:48:15.341Z,2.15
2023-05-05T13:50:41.704Z,2.33
2023-05-05T13:53:08.033Z,2.20
2023-05-05T13:55:34.374Z,2.10
2023-05-05T13:58:00.705Z,2.30
2023-05-05T14:00:27.100Z,3.05
2023-05-05T14:02:53.845Z,2.50
2023-05-05T14:05:20.705Z,2.47
2023-05-05T14:07:47.361Z,2.33
2023-05-05T14:10:13.691Z,2.50
2023-05-05T14:12:40.056Z,2.58
2023-05-05T14:15:07.058Z,2.70
2023-05-05T14:17:33.629Z,2.40
2023-05-05T14:20:00.051Z,3.00
2023-05-05T14:22:26.384Z,2.78
2023-05-05T14:24:52.716Z,2.90
2023-05-05T14:27:19.046Z,2.90
2023-05-05T14:29:45.433Z,2.70
2023-05-05T14:32:11.875Z,3.00
2023-05-05T14:34:38.240Z,2.67
2023-05-05T14:37:04.579Z,2.78
2023-05-05T14:39:31.019Z,3.17
2023-05-05T14:41:57.349Z,2.53
2023-05-05T14:44:23.684Z,2.90
2023-05-05T14:46:51.136Z,2.50
2023-05-05T14:49:17.622Z,2.95
2023-05-05T14:51:43.962Z,2.83
2023-05-05T14:54:24.229Z,2.75
2023-05-05T14:56:54.101Z,2.75
2023-05-05T14:59:20.466Z,3.08
2023-05-05T15:01:46.818Z,3.05
2023-05-05T15:04:13.213Z,3.00
2023-05-05T15:06:39.605Z,2.80
2023-05-05T15:09:05.944Z,3.13
2023-05-05T15:11:32.304Z,2.90
2023-05-05T15:13:58.644Z,3.33
2023-05-05T15:16:26.007Z,3.00
2023-05-05T15:18:52.383Z,3.00
2023-05-05T15:21:18.741Z,3.03
2023-05-05T15:23:45.092Z,2.80
2023-05-05T15:26:11.438Z,3.00
2023-05-05T15:28:37.795Z,2.90
2023-05-05T15:31:04.181Z,3.10
2023-05-05T15:33:30.494Z,3.20
2023-05-05T15:35:56.847Z,3.20
2023-05-05T15:38:23.233Z,2.90
2023-05-05T15:40:50.247Z,3.00
2023-05-05T15:43:16.728Z,3.00
2023-05-05T15:45:43.092Z,2.90
2023-05-05T15:48:09.470Z,3.03
2023-05-05T15:50:35.887Z,3.08
2023-05-05T15:53:02.293Z,3.40
2023-05-05T15:55:28.856Z,3.00
2023-05-05T15:57:55.211Z,3.55
2023-05-05T16:00:21.777Z,3.47
2023-05-05T16:02:48.272Z,3.33
2023-05-05T16:05:14.714Z,3.70
2023-05-05T16:07:41.024Z,3.20
2023-05-05T16:10:08.106Z,4.47
2023-05-05T16:12:34.438Z,3.80
2023-05-05T16:15:00.841Z,4.15
2023-05-05T16:17:27.221Z,4.03
2023-05-05T16:19:53.582Z,3.60
2023-05-05T16:22:19.939Z,3.45
2023-05-05T16:24:46.260Z,3.90
2023-05-05T16:27:12.644Z,3.90
2023-05-05T16:29:39.059Z,3.40
2023-05-05T16:32:05.690Z,3.47
2023-05-05T16:34:32.130Z,3.08
2023-05-05T16:36:58.447Z,3.40
2023-05-05T16:39:25.273Z,3.72
2023-05-05T16:41:51.584Z,3.80
2023-05-05T16:44:17.904Z,3.50
2023-05-05T16:46:44.367Z,3.45
2023-05-05T16:49:10.774Z,3.67
2023-05-05T16:51:37.106Z,5.07
2023-05-05T16:54:03.581Z,3.13
2023-05-05T16:56:29.946Z,3.40
2023-05-05T16:58:56.355Z,3.08
2023-05-05T17:01:22.845Z,2.55
2023-05-05T17:03:49.199Z,3.10
2023-05-05T17:06:15.522Z,3.40
2023-05-05T17:08:41.859Z,3.58
2023-05-05T17:11:10.858Z,2.78
2023-05-05T17:13:37.947Z,3.50
2023-05-05T17:16:04.544Z,3.00
2023-05-05T17:18:30.953Z,3.13
2023-05-05T17:20:57.293Z,3.70
2023-05-05T17:23:23.642Z,3.13
2023-05-05T17:25:49.995Z,2.90
2023-05-05T17:28:16.319Z,2.85
2023-05-05T17:30:42.658Z,2.90
2023-05-05T17:33:09.118Z,2.83
2023-05-05T17:35:35.565Z,2.47
2023-05-05T17:38:01.891Z,2.40
2023-05-05T17:40:28.266Z,2.80
2023-05-05T17:42:54.657Z,2.63
2023-05-05T17:45:21.010Z,2.25
2023-05-05T17:47:47.387Z,2.58
2023-05-05T17:50:13.766Z,3.08
2023-05-05T17:52:40.101Z,2.90
2023-05-05T17:55:07.118Z,3.20
2023-05-05T17:57:33.669Z,3.28
2023-05-05T18:00:02.977Z,3.75
2023-05-05T18:02:29.458Z,2.97
2023-05-05T18:04:56.214Z,2.83
2023-05-05T18:07:23.605Z,2.80
2023-05-05T18:09:49.944Z,2.78
2023-05-05T18:12:16.342Z,2.97
2023-05-05T18:14:42.674Z,3.13
2023-05-05T18:17:08.999Z,3.15
2023-05-05T18:19:35.334Z,3.57
2023-05-05T18:22:01.718Z,4.00
2023-05-05T18:24:28.082Z,3.90
2023-05-05T18:26:54.461Z,3.67
2023-05-05T18:29:21.504Z,4.00
2023-05-05T18:31:47.951Z,4.23
2023-05-05T18:34:14.308Z,4.00
2023-05-05T18:36:40.625Z,4.00
2023-05-05T18:39:06.944Z,3.80
2023-05-05T18:41:33.274Z,3.90
2023-05-05T18:43:59.588Z,3.83
2023-05-05T18:46:26.128Z,4.13
2023-05-05T18:48:52.467Z,4.35
2023-05-05T18:51:18.834Z,4.80
2023-05-05T18:53:45.148Z,5.18
2023-05-05T18:56:11.508Z,4.73
2023-05-05T18:58:40.841Z,4.82
2023-05-05T19:01:07.217Z,4.72
2023-05-05T19:03:33.617Z,4.57
2023-05-05T19:06:00.200Z,4.60
2023-05-05T19:08:26.579Z,4.30
2023-05-05T19:10:52.904Z,4.43
2023-05-05T19:13:19.324Z,4.85
2023-05-05T19:15:45.708Z,5.28
2023-05-05T19:18:12.184Z,5.63
2023-05-05T19:20:38.780Z,6.13
2023-05-05T19:23:05.174Z,7.10
2023-05-05T19:25:31.620Z,5.88
2023-05-05T19:27:58.028Z,5.97
2023-05-05T19:30:24.365Z,4.93
2023-05-05T19:32:50.811Z,3.90
2023-05-05T19:35:17.315Z,3.97
2023-05-05T19:37:43.701Z,5.60
2023-05-05T19:40:10.520Z,6.15
2023-05-05T19:42:37.042Z,6.18
2023-05-05T19:45:03.526Z,5.63
2023-05-05T19:47:29.862Z,5.18
2023-05-05T19:49:56.307Z,5.20
2023-05-05T19:52:22.798Z,4.63
2023-05-05T19:54:49.947Z,5.13
2023-05-05T19:57:17.656Z,5.43
2023-05-05T19:59:44.142Z,5.07
2023-05-05T20:02:10.496Z,5.10
2023-05-05T20:04:36.941Z,4.90
2023-05-05T20:07:03.432Z,5.20
2023-05-05T20:09:29.765Z,5.27
2023-05-05T20:11:58.379Z,5.10
2023-05-05T20:14:24.971Z,4.85
2023-05-05T20:16:51.511Z,5.72
2023-05-05T20:19:19.092Z,6.00
2023-05-05T20:21:45.414Z,5.43
2023-05-05T20:24:11.783Z,3.83
2023-05-05T20:26:38.125Z,4.03
2023-05-05T20:29:04.453Z,3.97
2023-05-05T20:31:30.850Z,4.25
2023-05-05T20:33:57.183Z,4.70
2023-05-05T20:36:23.502Z,5.00
2023-05-05T20:38:49.837Z,5.13
2023-05-05T20:41:16.163Z,5.25
2023-05-05T20:43:42.488Z,4.88
2023-05-05T20:46:13.295Z,4.93
2023-05-05T20:48:42.511Z,5.57
2023-05-05T20:51:10.526Z,5.88
2023-05-05T20:53:36.844Z,5.65
2023-05-05T20:56:05.119Z,5.72
2023-05-05T20:58:32.633Z,5.67
2023-05-05T21:00:59.004Z,5.75
2023-05-05T21:03:25.504Z,5.38
2023-05-05T21:05:51.904Z,5.28
2023-05-05T21:08:18.224Z,5.70
2023-05-05T21:10:44.552Z,5.60
2023-05-05T21:13:11.131Z,5.78
2023-05-05T21:15:37.675Z,4.97
2023-05-05T21:18:04.268Z,5.97
2023-05-05T21:20:30.636Z,7.95
2023-05-05T21:22:56.978Z,5.80
2023-05-05T21:25:23.720Z,6.00
2023-05-05T21:27:50.052Z,5.07
2023-05-05T21:30:16.988Z,5.05
2023-05-05T21:32:43.716Z,4.88
2023-05-05T21:35:10.128Z,4.93
2023-05-05T21:37:37.783Z,5.00
2023-05-05T21:40:04.985Z,4.93
2023-05-05T21:42:31.340Z,4.55
2023-05-05T21:44:57.661Z,5.40
2023-05-05T21:47:24.052Z,4.90
2023-05-05T21:49:50.408Z,4.80
2023-05-05T21:52:17.088Z,5.68
2023-05-05T21:54:43.521Z,5.70
2023-05-05T21:57:09.866Z,5.22
2023-05-05T21:59:36.254Z,5.97
2023-05-05T22:02:02.652Z,6.30
2023-05-05T22:04:29.056Z,6.18
2023-05-05T22:06:55.389Z,5.90
2023-05-05T22:09:21.869Z,6.43
2023-05-05T22:11:48.176Z,6.20
2023-05-05T22:14:14.521Z,6.05
2023-05-05T22:16:40.906Z,6.53
2023-05-05T22:19:07.366Z,6.00
2023-05-05T22:21:33.872Z,6.05
2023-05-05T22:24:00.208Z,6.40
2023-05-05T22:26:26.564Z,6.30
2023-05-05T22:28:52.937Z,5.70
2023-05-05T22:31:19.285Z,6.30
2023-05-05T22:33:45.638Z,6.07
2023-05-05T22:36:11.962Z,5.50
2023-05-05T22:38:38.297Z,6.40
2023-05-05T22:41:06.035Z,5.97
2023-05-05T22:43:32.373Z,5.68
2023-05-05T22:45:58.697Z,6.15
2023-05-05T22:48:25.062Z,6.23
2023-05-05T22:50:51.390Z,6.97
2023-05-05T22:53:17.714Z,7.18
2023-05-05T22:55:44.051Z,8.07
2023-05-05T22:58:10.373Z,8.30
2023-05-05T23:00:36.688Z,8.43
2023-05-05T23:03:03.054Z,6.95
2023-05-05T23:05:29.584Z,6.80
2023-05-05T23:07:55.944Z,6.90
2023-05-05T23:10:22.268Z,6.95
2023-05-05T23:12:48.623Z,6.70
2023-05-05T23:15:15.016Z,6.57
2023-05-05T23:17:41.410Z,6.43
2023-05-05T23:20:08.433Z,6.82
2023-05-05T23:22:34.769Z,6.97
2023-05-05T23:25:01.125Z,7.47
2023-05-05T23:27:27.437Z,7.15
2023-05-05T23:29:54.848Z,6.05
2023-05-05T23:32:21.168Z,6.93
2023-05-05T23:34:47.541Z,6.70
2023-05-05T23:37:14.034Z,6.60
2023-05-05T23:39:41.938Z,6.53
2023-05-05T23:42:08.403Z,6.43
2023-05-05T23:44:34.828Z,6.40
2023-05-05T23:47:01.172Z,6.10
2023-05-05T23:49:27.512Z,6.13
2023-05-05T23:51:53.849Z,5.78
2023-05-05T23:54:20.195Z,5.82
2023-05-05T23:56:46.522Z,5.97
2023-05-05T23:59:13.137Z,6.43
